Wetterverlauf

Letzte Wetterlage 20.09.2014 09:24
Wetterdiagramm
Tabellarische Darstellung
Datum Temperatur Windchill Feuchte Luftdruck Windrichtung Windstärke Niederschlag
20.09.2014 09:24 17,6 °C 17,6 °C 98 % 1011,1 hPa 293 0.0 0,00 mm
20.09.2014 09:03 17,7 °C 17,7 °C 98 % 1011,1 hPa 270 0.0 0,00 mm
20.09.2014 08:43 17,2 °C 17,2 °C 98 % 1011,1 hPa 270 0.0 0,00 mm
20.09.2014 08:22 17,0 °C 17,0 °C 98 % 1011,1 hPa 270 0.0 0,00 mm
20.09.2014 08:01 16,7 °C 16,7 °C 98 % 1011,1 hPa 270 0.1 0,00 mm
20.09.2014 07:40 16,4 °C 16,4 °C 98 % 1011,1 hPa 270 0.4 0,00 mm
20.09.2014 07:19 16,0 °C 16,0 °C 98 % 1011,1 hPa 270 0.0 0,00 mm
20.09.2014 06:59 16,1 °C 16,1 °C 98 % 1011,1 hPa 270 0.0 0,00 mm
20.09.2014 06:38 16,2 °C 16,2 °C 98 % 1010,1 hPa 270 0.0 0,00 mm
20.09.2014 06:17 16,3 °C 16,3 °C 98 % 1010,1 hPa 270 0.0 0,00 mm
20.09.2014 05:56 16,3 °C 16,3 °C 98 % 1010,1 hPa 270 0.0 0,00 mm
20.09.2014 05:35 16,1 °C 16,1 °C 98 % 1010,1 hPa 270 0.0 0,00 mm
20.09.2014 05:15 15,7 °C 15,7 °C 98 % 1011,1 hPa 270 0.0 0,00 mm
20.09.2014 04:54 15,7 °C 15,7 °C 98 % 1010,1 hPa 270 0.0 0,00 mm
20.09.2014 04:33 15,5 °C 15,5 °C 98 % 1011,1 hPa 270 0.0 0,00 mm
20.09.2014 04:12 15,4 °C 15,4 °C 98 % 1010,1 hPa 270 0.0 0,00 mm
20.09.2014 03:51 15,8 °C 15,8 °C 98 % 1011,1 hPa 270 0.0 0,00 mm
20.09.2014 03:31 16,1 °C 16,1 °C 98 % 1011,1 hPa 270 0.0 0,00 mm
20.09.2014 03:10 16,5 °C 16,5 °C 98 % 1011,1 hPa 270 0.0 0,00 mm
20.09.2014 02:49 16,8 °C 16,8 °C 98 % 1010,1 hPa 270 0.0 0,00 mm
20.09.2014 02:28 17,0 °C 17,0 °C 98 % 1011,1 hPa 270 0.0 0,00 mm
20.09.2014 02:08 17,1 °C 17,1 °C 98 % 1011,1 hPa 270 0.0 0,00 mm
20.09.2014 01:47 17,1 °C 17,1 °C 98 % 1011,1 hPa 270 0.0 0,00 mm
20.09.2014 01:26 17,2 °C 17,2 °C 98 % 1011,1 hPa 270 0.0 0,00 mm
20.09.2014 01:06 17,3 °C 17,3 °C 98 % 1011,1 hPa 270 0.0 0,00 mm
Empfehlen Sie wetter.com
| Mehr
Neue Wetterwarnung

Neue Niederschlagsmeldung
Neue Meldung
Regen Liveticker
    sehr starker Regen/Gewitter
    starker Regen/Gewitter
    mäßiger bis starker Regen
    mäßiger Regen
    leichter bis mäßiger Regen
    kein Regen